createdAt,value
2016-11-04T00:00:02.533Z,1013.98
2016-11-04T00:00:43.042Z,1013.96
2016-11-04T00:01:23.518Z,1013.94
2016-11-04T00:02:03.975Z,1013.9
2016-11-04T00:02:44.459Z,1013.91
2016-11-04T00:03:24.934Z,1013.9
2016-11-04T00:04:05.443Z,1013.88
2016-11-04T00:04:45.936Z,1013.91
2016-11-04T00:05:26.430Z,1013.92
2016-11-04T00:06:06.918Z,1013.89
2016-11-04T00:06:47.385Z,1013.88
2016-11-04T00:07:27.873Z,1013.82
2016-11-04T00:08:08.333Z,1013.76
2016-11-04T00:08:48.804Z,1013.75
2016-11-04T00:09:29.302Z,1013.67
2016-11-04T00:10:09.762Z,1013.67
2016-11-04T00:10:50.275Z,1013.65
2016-11-04T00:11:30.769Z,1013.66
2016-11-04T00:12:11.262Z,1013.6
2016-11-04T00:12:51.755Z,1013.6
2016-11-04T00:13:32.228Z,1013.55
2016-11-04T00:14:12.709Z,1013.56
2016-11-04T00:14:53.209Z,1013.64
2016-11-04T00:15:33.689Z,1013.67
2016-11-04T00:16:14.195Z,1013.67
2016-11-04T00:16:54.676Z,1013.72
2016-11-04T00:17:35.192Z,1013.69
2016-11-04T00:18:15.804Z,1013.68
2016-11-04T00:18:56.280Z,1013.71
2016-11-04T00:19:36.748Z,1013.72
2016-11-04T00:20:17.215Z,1013.68
2016-11-04T00:20:57.749Z,1013.61
2016-11-04T00:21:38.234Z,1013.57
2016-11-04T00:22:18.703Z,1013.55
2016-11-04T00:22:59.195Z,1013.59
2016-11-04T00:23:39.650Z,1013.64
2016-11-04T00:24:20.125Z,1013.62
2016-11-04T00:25:00.606Z,1013.63
2016-11-04T00:25:41.090Z,1013.69
2016-11-04T00:26:21.580Z,1013.7
2016-11-04T00:27:02.076Z,1013.68
2016-11-04T00:27:42.559Z,1013.7
2016-11-04T00:28:23.032Z,1013.62
2016-11-04T00:29:03.483Z,1013.54
2016-11-04T00:29:43.948Z,1013.52
2016-11-04T00:30:24.489Z,1013.51
2016-11-04T00:31:04.958Z,1013.52
2016-11-04T00:31:45.495Z,1013.47
2016-11-04T00:32:25.979Z,1013.37
2016-11-04T00:33:06.465Z,1013.31
2016-11-04T00:33:46.949Z,1013.4
2016-11-04T00:34:27.446Z,1013.26
2016-11-04T00:35:07.896Z,1013.31
2016-11-04T00:35:48.405Z,1013.27
2016-11-04T00:36:28.891Z,1013.21
2016-11-04T00:37:09.376Z,1013.27
2016-11-04T00:37:49.881Z,1013.29
2016-11-04T00:38:30.353Z,1013.33
2016-11-04T00:39:10.829Z,1013.35
2016-11-04T00:39:51.311Z,1013.34
2016-11-04T00:40:31.776Z,1013.32
2016-11-04T00:41:12.265Z,1013.31
2016-11-04T00:41:52.741Z,1013.28
2016-11-04T00:42:33.258Z,1013.33
2016-11-04T00:43:13.723Z,1013.28
2016-11-04T00:43:54.193Z,1013.27
2016-11-04T00:44:34.656Z,1013.26
2016-11-04T00:45:15.137Z,1013.24
2016-11-04T00:45:55.638Z,1013.26
2016-11-04T00:46:36.119Z,1013.21
2016-11-04T00:47:16.630Z,1013.15
2016-11-04T00:47:57.097Z,1013.15
2016-11-04T00:48:37.577Z,1013.14
2016-11-04T00:49:18.052Z,1013.12
2016-11-04T00:49:58.540Z,1013.11
2016-11-04T00:50:39.028Z,1013.08
2016-11-04T00:51:19.537Z,1013.1
2016-11-04T00:52:00.030Z,1013.09
2016-11-04T00:52:40.482Z,1013.1
2016-11-04T00:53:20.977Z,1013.09
2016-11-04T00:54:01.468Z,1013.12
2016-11-04T00:54:41.971Z,1013.15
2016-11-04T00:55:22.444Z,1013.17
2016-11-04T00:56:02.928Z,1013.22
2016-11-04T00:56:43.423Z,1013.18
2016-11-04T00:57:23.917Z,1013.15
2016-11-04T00:58:04.445Z,1013.21
2016-11-04T00:58:44.898Z,1013.22
2016-11-04T00:59:25.375Z,1013.21
2016-11-04T01:00:05.881Z,1013.18
2016-11-04T01:00:46.350Z,1013.23
2016-11-04T01:01:26.840Z,1013.21
2016-11-04T01:02:07.312Z,1013.18
2016-11-04T01:02:47.790Z,1013.21
2016-11-04T01:03:28.272Z,1013.18
2016-11-04T01:04:08.744Z,1013.16
2016-11-04T01:04:49.244Z,1013.08
2016-11-04T01:05:29.755Z,1013.13
2016-11-04T01:06:10.267Z,1013.1
2016-11-04T01:06:50.729Z,1013.11
2016-11-04T01:07:31.239Z,1013.06
2016-11-04T01:08:11.720Z,1013.05
2016-11-04T01:08:52.176Z,1013.04
2016-11-04T01:09:32.669Z,1013.02
2016-11-04T01:10:13.167Z,1012.96
2016-11-04T01:10:53.704Z,1013
2016-11-04T01:11:34.160Z,1012.94
2016-11-04T01:12:14.685Z,1012.96
2016-11-04T01:12:55.172Z,1012.99
2016-11-04T01:13:35.633Z,1012.95
2016-11-04T01:14:16.132Z,1012.99
2016-11-04T01:14:56.591Z,1012.98
2016-11-04T01:15:37.078Z,1012.91
2016-11-04T01:16:17.574Z,1012.85
2016-11-04T01:16:58.056Z,1012.88
2016-11-04T01:17:38.531Z,1012.87
2016-11-04T01:18:19.023Z,1012.83
2016-11-04T01:18:59.515Z,1012.82
2016-11-04T01:19:40.016Z,1012.81
2016-11-04T01:20:20.523Z,1012.77
2016-11-04T01:21:01.010Z,1012.75
2016-11-04T01:21:41.486Z,1012.74
2016-11-04T01:22:21.995Z,1012.74
2016-11-04T01:23:02.470Z,1012.7
2016-11-04T01:23:42.943Z,1012.73
2016-11-04T01:24:23.421Z,1012.71
2016-11-04T01:25:03.892Z,1012.74
2016-11-04T01:25:44.393Z,1012.76
2016-11-04T01:26:24.855Z,1012.73
2016-11-04T01:27:05.341Z,1012.79
2016-11-04T01:27:45.788Z,1012.78
2016-11-04T01:28:26.268Z,1012.75
2016-11-04T01:29:06.773Z,1012.8
2016-11-04T01:29:47.255Z,1012.81
2016-11-04T01:30:27.760Z,1012.78
2016-11-04T01:31:08.215Z,1012.77
2016-11-04T01:31:48.700Z,1012.75
2016-11-04T01:32:29.194Z,1012.85
2016-11-04T01:33:09.673Z,1012.77
2016-11-04T01:33:50.145Z,1012.82
2016-11-04T01:34:30.610Z,1012.82
2016-11-04T01:35:11.109Z,1012.9
2016-11-04T01:35:51.623Z,1012.77
2016-11-04T01:36:32.091Z,1012.77
2016-11-04T01:37:12.574Z,1012.8
2016-11-04T01:37:53.051Z,1012.76
2016-11-04T01:38:33.524Z,1012.83
2016-11-04T01:39:14.049Z,1012.78
2016-11-04T01:39:54.606Z,1012.79
2016-11-04T01:40:35.050Z,1012.79
2016-11-04T01:41:15.556Z,1012.8
2016-11-04T01:41:56.045Z,1012.74
2016-11-04T01:42:36.527Z,1012.75
2016-11-04T01:43:16.995Z,1012.71
2016-11-04T01:43:57.483Z,1012.75
2016-11-04T01:44:38.004Z,1012.64
2016-11-04T01:45:18.466Z,1012.68
2016-11-04T01:45:58.990Z,1012.62
2016-11-04T01:46:39.510Z,1012.64
2016-11-04T01:47:19.975Z,1012.62
2016-11-04T01:48:00.468Z,1012.62
2016-11-04T01:48:40.949Z,1012.64
2016-11-04T01:49:21.442Z,1012.58
2016-11-04T01:50:01.951Z,1012.58
2016-11-04T01:50:42.387Z,1012.61
2016-11-04T01:51:22.878Z,1012.63
2016-11-04T01:52:03.355Z,1012.64
2016-11-04T01:52:43.830Z,1012.58
2016-11-04T01:53:24.327Z,1012.59
2016-11-04T01:54:04.891Z,1012.6
2016-11-04T01:54:45.351Z,1012.59
2016-11-04T01:55:25.828Z,1012.59
2016-11-04T01:56:06.312Z,1012.64
2016-11-04T01:56:46.787Z,1012.54
2016-11-04T01:57:27.277Z,1012.57
2016-11-04T01:58:07.769Z,1012.54
2016-11-04T01:58:48.243Z,1012.56
2016-11-04T01:59:28.733Z,1012.53
2016-11-04T02:00:09.177Z,1012.54
2016-11-04T02:00:49.677Z,1012.52
2016-11-04T02:01:30.139Z,1012.51
2016-11-04T02:02:10.633Z,1012.52
2016-11-04T02:02:51.129Z,1012.54
2016-11-04T02:03:31.606Z,1012.43
2016-11-04T02:04:12.120Z,1012.5
2016-11-04T02:04:52.591Z,1012.5
2016-11-04T02:05:33.079Z,1012.51
2016-11-04T02:06:13.572Z,1012.48
2016-11-04T02:06:54.083Z,1012.52
2016-11-04T02:07:34.536Z,1012.47
2016-11-04T02:08:14.973Z,1012.53
2016-11-04T02:08:55.467Z,1012.35
2016-11-04T02:09:35.948Z,1012.42
2016-11-04T02:10:16.448Z,1012.38
2016-11-04T02:10:56.918Z,1012.4
2016-11-04T02:11:37.418Z,1012.4
2016-11-04T02:12:17.872Z,1012.37
2016-11-04T02:12:58.346Z,1012.35
2016-11-04T02:13:38.864Z,1012.33
2016-11-04T02:14:19.348Z,1012.32
2016-11-04T02:14:59.825Z,1012.26
2016-11-04T02:15:40.306Z,1012.25
2016-11-04T02:16:20.823Z,1012.22
2016-11-04T02:17:01.316Z,1012.21
2016-11-04T02:17:41.818Z,1012.2
2016-11-04T02:18:22.345Z,1012.25
2016-11-04T02:19:02.841Z,1012.23
2016-11-04T02:19:43.301Z,1012.22
2016-11-04T02:20:23.816Z,1012.2
2016-11-04T02:21:04.301Z,1012.21
2016-11-04T02:21:44.828Z,1012.19
2016-11-04T02:22:25.331Z,1012.21
2016-11-04T02:23:05.826Z,1012.18
2016-11-04T02:23:46.322Z,1012.16
2016-11-04T02:24:26.779Z,1012.17
2016-11-04T02:25:07.255Z,1012.18
2016-11-04T02:25:47.752Z,1012.21
2016-11-04T02:26:28.205Z,1012.16
2016-11-04T02:27:08.714Z,1012.21
2016-11-04T02:27:49.197Z,1012.16
2016-11-04T02:28:29.642Z,1012.17
2016-11-04T02:29:10.130Z,1012.16
2016-11-04T02:29:50.596Z,1012.14
2016-11-04T02:30:31.093Z,1012.13
2016-11-04T02:31:11.575Z,1012.16
2016-11-04T02:31:52.056Z,1012.15
2016-11-04T02:32:32.551Z,1012.18
2016-11-04T02:33:13.028Z,1012.19
2016-11-04T02:33:53.496Z,1012.14
2016-11-04T02:34:33.990Z,1012.11
2016-11-04T02:35:14.533Z,1012.14
2016-11-04T02:35:55.006Z,1012.11
2016-11-04T02:36:35.470Z,1012.11
2016-11-04T02:37:15.951Z,1012.11
2016-11-04T02:37:56.472Z,1012.1
2016-11-04T02:38:36.953Z,1012.13
2016-11-04T02:39:17.441Z,1012.11
2016-11-04T02:39:57.903Z,1012.1
2016-11-04T02:40:38.397Z,1012.08
2016-11-04T02:41:18.870Z,1012.07
2016-11-04T02:41:59.369Z,1012.07
2016-11-04T02:42:39.847Z,1012.05
2016-11-04T02:43:20.328Z,1012.02
2016-11-04T02:44:00.887Z,1012.07
2016-11-04T02:44:41.350Z,1012.06
2016-11-04T02:45:21.809Z,1011.99
2016-11-04T02:46:02.275Z,1011.96
2016-11-04T02:46:42.757Z,1011.99
2016-11-04T02:47:23.241Z,1011.98
2016-11-04T02:48:03.717Z,1011.93
2016-11-04T02:48:44.214Z,1011.97
2016-11-04T02:49:24.692Z,1011.95
2016-11-04T02:50:05.188Z,1011.91
2016-11-04T02:50:45.705Z,1011.87
2016-11-04T02:51:26.207Z,1011.89
2016-11-04T02:52:06.691Z,1011.91
2016-11-04T02:52:47.179Z,1011.9
2016-11-04T02:53:27.660Z,1011.81
2016-11-04T02:54:08.148Z,1011.82
2016-11-04T02:54:48.653Z,1011.85
2016-11-04T02:55:29.110Z,1011.8
2016-11-04T02:56:09.595Z,1011.82
2016-11-04T02:56:50.079Z,1011.72
2016-11-04T02:57:30.565Z,1011.74
2016-11-04T02:58:11.057Z,1011.71
2016-11-04T02:58:51.530Z,1011.69
2016-11-04T02:59:32.015Z,1011.65
2016-11-04T03:00:12.493Z,1011.65
2016-11-04T03:00:52.977Z,1011.62
2016-11-04T03:01:33.437Z,1011.65
2016-11-04T03:02:13.920Z,1011.65
2016-11-04T03:02:54.387Z,1011.63
2016-11-04T03:03:34.852Z,1011.65
2016-11-04T03:04:15.381Z,1011.66
2016-11-04T03:04:55.874Z,1011.63
2016-11-04T03:05:36.353Z,1011.6
2016-11-04T03:06:16.835Z,1011.63
2016-11-04T03:06:57.294Z,1011.64
2016-11-04T03:07:37.781Z,1011.6
2016-11-04T03:08:18.251Z,1011.6
2016-11-04T03:08:58.754Z,1011.61
2016-11-04T03:09:39.245Z,1011.56
2016-11-04T03:10:19.731Z,1011.54
2016-11-04T03:11:00.241Z,1011.53
2016-11-04T03:11:40.708Z,1011.55
2016-11-04T03:12:21.220Z,1011.45
2016-11-04T03:13:01.740Z,1011.5
2016-11-04T03:13:42.190Z,1011.47
2016-11-04T03:14:22.660Z,1011.46
2016-11-04T03:15:03.129Z,1011.48
2016-11-04T03:15:43.621Z,1011.41
2016-11-04T03:16:24.111Z,1011.45
2016-11-04T03:17:04.615Z,1011.4
2016-11-04T03:17:45.117Z,1011.4
2016-11-04T03:18:25.599Z,1011.38
2016-11-04T03:19:06.070Z,1011.36
2016-11-04T03:19:46.542Z,1011.33
2016-11-04T03:20:27.029Z,1011.34
2016-11-04T03:21:07.516Z,1011.35
2016-11-04T03:21:48.028Z,1011.33
2016-11-04T03:22:28.477Z,1011.39
2016-11-04T03:23:08.958Z,1011.39
2016-11-04T03:23:49.437Z,1011.35
2016-11-04T03:24:29.907Z,1011.36
2016-11-04T03:25:10.402Z,1011.38
2016-11-04T03:25:50.845Z,1011.36
2016-11-04T03:26:31.368Z,1011.35
2016-11-04T03:27:11.868Z,1011.34
2016-11-04T03:27:52.386Z,1011.37
2016-11-04T03:28:32.856Z,1011.34
2016-11-04T03:29:13.365Z,1011.34
2016-11-04T03:29:53.849Z,1011.36
2016-11-04T03:30:34.369Z,1011.37
2016-11-04T03:31:14.881Z,1011.33
2016-11-04T03:31:55.382Z,1011.35
2016-11-04T03:32:35.845Z,1011.3
2016-11-04T03:33:16.298Z,1011.35
2016-11-04T03:33:56.787Z,1011.33
2016-11-04T03:34:37.239Z,1011.27
2016-11-04T03:35:17.735Z,1011.38
2016-11-04T03:35:58.224Z,1011.32
2016-11-04T03:36:38.707Z,1011.32
2016-11-04T03:37:19.191Z,1011.3
2016-11-04T03:37:59.682Z,1011.36
2016-11-04T03:38:40.172Z,1011.34
2016-11-04T03:39:20.665Z,1011.45
2016-11-04T03:40:01.182Z,1011.35
2016-11-04T03:40:41.671Z,1011.33
2016-11-04T03:41:22.160Z,1011.3
2016-11-04T03:42:02.649Z,1011.26
2016-11-04T03:42:43.141Z,1011.34
2016-11-04T03:43:23.647Z,1011.35
2016-11-04T03:44:04.123Z,1011.25
2016-11-04T03:44:44.625Z,1011.19
2016-11-04T03:45:25.104Z,1011.25
2016-11-04T03:46:05.586Z,1011.23
2016-11-04T03:46:46.069Z,1011.25
2016-11-04T03:47:26.564Z,1011.26
2016-11-04T03:48:07.048Z,1011.33
2016-11-04T03:48:47.522Z,1011.19
2016-11-04T03:49:27.984Z,1011.18
2016-11-04T03:50:08.431Z,1011.28
2016-11-04T03:50:48.919Z,1011.22
2016-11-04T03:51:29.433Z,1011.24
2016-11-04T03:52:09.893Z,1011.17
2016-11-04T03:52:50.360Z,1011.17
2016-11-04T03:53:30.834Z,1011.19
2016-11-04T03:54:11.297Z,1011.24
2016-11-04T03:54:51.757Z,1011.2
2016-11-04T03:55:32.280Z,1011.17
2016-11-04T03:56:12.721Z,1011.23
2016-11-04T03:56:53.223Z,1011.03
2016-11-04T03:57:33.688Z,1011.18
2016-11-04T03:58:14.174Z,1011.24
2016-11-04T03:58:54.632Z,1011.09
2016-11-04T03:59:35.114Z,1011.16
2016-11-04T04:00:15.631Z,1011.11
2016-11-04T04:00:56.084Z,1011.12
2016-11-04T04:01:36.593Z,1011.15
2016-11-04T04:02:17.097Z,1011.14
2016-11-04T04:02:57.585Z,1011.21
2016-11-04T04:03:38.048Z,1011.23
2016-11-04T04:04:18.568Z,1011.16
2016-11-04T04:04:59.035Z,1011.15
2016-11-04T04:05:39.509Z,1011.23
2016-11-04T04:06:20.092Z,1011.13
2016-11-04T04:07:00.556Z,1011.2
2016-11-04T04:07:41.016Z,1011.17
2016-11-04T04:08:21.493Z,1011.08
2016-11-04T04:09:01.995Z,1011.04
2016-11-04T04:09:42.491Z,1011.19
2016-11-04T04:10:22.974Z,1011.28
2016-11-04T04:11:03.428Z,1011.16
2016-11-04T04:11:43.924Z,1011.09
2016-11-04T04:12:24.402Z,1011.17
2016-11-04T04:13:04.879Z,1011.15
2016-11-04T04:13:48.103Z,1011.14
2016-11-04T04:14:28.610Z,1011.1
2016-11-04T04:15:09.082Z,1011.19
2016-11-04T04:15:49.545Z,1011.12
2016-11-04T04:16:30.003Z,1011.28
2016-11-04T04:17:10.477Z,1011.2
2016-11-04T04:17:50.970Z,1011.28
2016-11-04T04:18:31.430Z,1011.2
2016-11-04T04:19:11.894Z,1011.2
2016-11-04T04:19:52.395Z,1011.21
2016-11-04T04:20:32.880Z,1011.2
2016-11-04T04:21:13.341Z,1011.2
2016-11-04T04:21:53.807Z,1011.24
2016-11-04T04:22:34.298Z,1011.23
2016-11-04T04:23:14.814Z,1011.27
2016-11-04T04:23:55.303Z,1011.22
2016-11-04T04:24:35.772Z,1011.17
2016-11-04T04:25:16.287Z,1011.21
2016-11-04T04:25:56.743Z,1011.15
2016-11-04T04:26:37.210Z,1011.16
2016-11-04T04:27:17.695Z,1011.11
2016-11-04T04:27:58.191Z,1011.09
2016-11-04T04:28:38.683Z,1011.07
2016-11-04T04:29:19.168Z,1011.08
2016-11-04T04:29:59.667Z,1011.06
2016-11-04T04:30:40.207Z,1010.99
2016-11-04T04:31:20.675Z,1011.03
2016-11-04T04:32:01.198Z,1011
2016-11-04T04:32:41.658Z,1010.96
2016-11-04T04:33:22.157Z,1011.01
2016-11-04T04:34:02.645Z,1010.95
2016-11-04T04:34:43.129Z,1010.96
2016-11-04T04:35:23.626Z,1010.89
2016-11-04T04:36:04.116Z,1010.89
2016-11-04T04:36:44.652Z,1010.95
2016-11-04T04:37:25.069Z,1010.87
2016-11-04T04:38:05.568Z,1010.89
2016-11-04T04:38:46.066Z,1010.9
2016-11-04T04:39:26.542Z,1010.87
2016-11-04T04:40:07.020Z,1010.82
2016-11-04T04:40:47.511Z,1010.86
2016-11-04T04:41:28.008Z,1010.83
2016-11-04T04:42:08.492Z,1010.85
2016-11-04T04:42:48.967Z,1010.81
2016-11-04T04:43:29.461Z,1010.8
2016-11-04T04:44:09.961Z,1010.79
2016-11-04T04:44:50.437Z,1010.76
2016-11-04T04:45:30.900Z,1010.76
2016-11-04T04:46:11.367Z,1010.79
2016-11-04T04:46:51.860Z,1010.75
2016-11-04T04:47:32.364Z,1010.73
2016-11-04T04:48:12.866Z,1010.68
2016-11-04T04:48:53.357Z,1010.71
2016-11-04T04:49:33.846Z,1010.66
2016-11-04T04:50:14.314Z,1010.64
2016-11-04T04:50:54.815Z,1010.69
2016-11-04T04:51:35.299Z,1010.69
2016-11-04T04:52:15.780Z,1010.68
2016-11-04T04:52:56.257Z,1010.65
2016-11-04T04:53:36.752Z,1010.62
2016-11-04T04:54:17.238Z,1010.78
2016-11-04T04:54:57.677Z,1010.7
2016-11-04T04:55:38.150Z,1010.61
2016-11-04T04:56:18.659Z,1010.63
2016-11-04T04:56:59.144Z,1010.6
2016-11-04T04:57:39.603Z,1010.57
2016-11-04T04:58:20.119Z,1010.65
2016-11-04T04:59:00.638Z,1010.58
2016-11-04T04:59:41.097Z,1010.57
2016-11-04T05:00:21.587Z,1010.58
2016-11-04T05:01:02.084Z,1010.54
2016-11-04T05:01:42.566Z,1010.48
2016-11-04T05:02:23.032Z,1010.48
2016-11-04T05:03:03.482Z,1010.48
2016-11-04T05:03:43.957Z,1010.5
2016-11-04T05:04:24.458Z,1010.43
2016-11-04T05:05:04.933Z,1010.47
2016-11-04T05:05:45.409Z,1010.44
2016-11-04T05:06:25.887Z,1010.46
2016-11-04T05:07:06.376Z,1010.42
2016-11-04T05:07:46.890Z,1010.41
2016-11-04T05:08:27.393Z,1010.45
2016-11-04T05:09:07.872Z,1010.39
2016-11-04T05:09:48.349Z,1010.41
2016-11-04T05:10:28.848Z,1010.38
2016-11-04T05:11:09.354Z,1010.38
2016-11-04T05:11:49.837Z,1010.38
2016-11-04T05:12:30.302Z,1010.36
2016-11-04T05:13:10.855Z,1010.35
2016-11-04T05:13:51.346Z,1010.37
2016-11-04T05:14:31.836Z,1010.36
2016-11-04T05:15:12.281Z,1010.43
2016-11-04T05:15:52.765Z,1010.41
2016-11-04T05:16:33.268Z,1010.33
2016-11-04T05:17:13.723Z,1010.35
2016-11-04T05:17:54.216Z,1010.36
2016-11-04T05:18:34.730Z,1010.35
2016-11-04T05:19:15.192Z,1010.33
2016-11-04T05:20:02.521Z,1010.32
2016-11-04T05:20:43.011Z,1010.32
2016-11-04T05:21:23.838Z,1010.32
2016-11-04T05:22:04.611Z,1010.27
2016-11-04T05:22:45.127Z,1010.25
2016-11-04T05:23:25.631Z,1010.25
2016-11-04T05:24:06.120Z,1010.27
2016-11-04T05:24:46.610Z,1010.21
2016-11-04T05:25:27.095Z,1010.39
2016-11-04T05:26:07.641Z,1010.17
2016-11-04T05:26:48.136Z,1010.19
2016-11-04T05:27:28.625Z,1010.16
2016-11-04T05:28:09.112Z,1010.18
2016-11-04T05:28:49.593Z,1010.2
2016-11-04T05:29:30.135Z,1010.13
2016-11-04T05:30:10.588Z,1010.11
2016-11-04T05:30:51.127Z,1010.16
2016-11-04T05:31:31.581Z,1010.17
2016-11-04T05:32:12.079Z,1010.16
2016-11-04T05:32:52.762Z,1010.16
2016-11-04T05:33:33.281Z,1010.13
2016-11-04T05:34:13.764Z,1010.12
2016-11-04T05:34:54.258Z,1010.1
2016-11-04T05:35:34.768Z,1010.13
2016-11-04T05:36:15.247Z,1010.07
2016-11-04T05:36:55.743Z,1010.2
2016-11-04T05:37:36.259Z,1010.12
2016-11-04T05:38:16.795Z,1010.12
2016-11-04T05:38:57.421Z,1010.12
2016-11-04T05:39:37.877Z,1010.24
2016-11-04T05:40:18.412Z,1010.09
2016-11-04T05:40:58.883Z,1010.08
2016-11-04T05:41:39.352Z,1010.2
2016-11-04T05:42:19.854Z,1010.07
2016-11-04T05:43:00.347Z,1010.22
2016-11-04T05:43:40.885Z,1010.1
2016-11-04T05:45:59.216Z,1010.02
2016-11-04T05:46:39.715Z,1010
2016-11-04T05:47:20.221Z,1009.96
2016-11-04T05:48:00.708Z,1009.94
2016-11-04T05:48:41.196Z,1010.06
2016-11-04T05:49:21.684Z,1010
2016-11-04T05:50:02.147Z,1009.94
2016-11-04T05:50:42.641Z,1009.87
2016-11-04T05:51:23.142Z,1009.94
2016-11-04T05:52:03.610Z,1009.98
2016-11-04T05:52:44.141Z,1009.96
2016-11-04T05:53:24.582Z,1009.9
2016-11-04T05:54:05.072Z,1009.94
2016-11-04T05:54:45.582Z,1009.88
2016-11-04T05:55:26.079Z,1009.89
2016-11-04T05:56:06.583Z,1009.89
2016-11-04T05:56:47.140Z,1009.89
2016-11-04T05:57:27.628Z,1009.85
2016-11-04T05:58:08.201Z,1009.87
2016-11-04T05:58:48.709Z,1009.85
2016-11-04T05:59:29.198Z,1010
2016-11-04T06:00:09.695Z,1009.85
2016-11-04T06:00:50.278Z,1009.83
2016-11-04T06:01:30.754Z,1009.83
2016-11-04T06:02:11.229Z,1009.81
2016-11-04T06:02:51.721Z,1009.81
2016-11-04T06:03:32.267Z,1009.83
2016-11-04T06:04:12.756Z,1009.77
2016-11-04T06:04:53.224Z,1009.81
2016-11-04T06:05:33.780Z,1009.78
2016-11-04T06:06:14.276Z,1009.71
2016-11-04T06:06:54.746Z,1009.77
2016-11-04T06:07:35.237Z,1009.79
2016-11-04T06:08:15.752Z,1009.73
2016-11-04T06:08:56.266Z,1009.68
2016-11-04T06:09:36.778Z,1009.76
2016-11-04T06:10:17.294Z,1009.79
2016-11-04T06:10:57.770Z,1009.74
2016-11-04T06:11:38.274Z,1009.72
2016-11-04T06:12:18.772Z,1009.83
2016-11-04T06:12:59.322Z,1009.81
2016-11-04T06:13:39.867Z,1009.7
2016-11-04T06:14:20.392Z,1009.82
2016-11-04T06:15:00.866Z,1009.74
2016-11-04T06:15:41.337Z,1009.77
2016-11-04T06:16:21.837Z,1009.68
2016-11-04T06:17:02.329Z,1009.76
2016-11-04T06:17:42.839Z,1009.72
2016-11-04T06:20:11.264Z,1009.73
2016-11-04T06:20:51.734Z,1009.72
2016-11-04T06:21:32.213Z,1009.83
2016-11-04T06:22:12.696Z,1009.71
2016-11-04T06:22:53.188Z,1009.78
2016-11-04T06:23:33.676Z,1009.76
2016-11-04T06:24:14.148Z,1009.73
2016-11-04T06:24:54.640Z,1009.78
2016-11-04T06:25:35.121Z,1009.86
2016-11-04T06:26:15.600Z,1009.7
2016-11-04T06:26:56.075Z,1009.75
2016-11-04T06:27:36.561Z,1009.75
2016-11-04T06:28:17.051Z,1009.65
2016-11-04T06:28:57.544Z,1009.7
2016-11-04T06:29:38.009Z,1009.8
2016-11-04T06:30:18.510Z,1009.73
2016-11-04T06:30:58.978Z,1009.71
2016-11-04T06:31:39.472Z,1009.72
2016-11-04T06:32:19.932Z,1009.66
2016-11-04T06:33:00.443Z,1009.67
2016-11-04T06:33:40.932Z,1009.66
2016-11-04T06:34:21.445Z,1009.71
2016-11-04T06:35:01.959Z,1009.66
2016-11-04T06:35:42.443Z,1009.73
2016-11-04T06:36:22.916Z,1009.64
2016-11-04T06:37:03.378Z,1009.61
2016-11-04T06:37:43.849Z,1009.66
2016-11-04T06:38:24.337Z,1009.67
2016-11-04T06:39:04.844Z,1009.78
2016-11-04T06:39:45.296Z,1009.75
2016-11-04T06:40:25.809Z,1009.77
2016-11-04T06:41:06.302Z,1009.67
2016-11-04T06:41:46.808Z,1009.68
2016-11-04T06:42:27.290Z,1009.68
2016-11-04T06:43:07.737Z,1009.78
2016-11-04T06:43:48.216Z,1009.71
2016-11-04T06:44:28.695Z,1009.77
2016-11-04T06:45:09.145Z,1009.78
2016-11-04T06:45:49.631Z,1009.82
2016-11-04T06:46:30.118Z,1009.69
2016-11-04T06:47:10.613Z,1009.79
2016-11-04T06:47:51.063Z,1009.72
2016-11-04T06:48:31.554Z,1009.75
2016-11-04T06:49:12.058Z,1009.82
2016-11-04T06:49:52.541Z,1009.81
2016-11-04T06:50:33.023Z,1009.82
2016-11-04T06:51:13.491Z,1009.78
2016-11-04T06:51:53.965Z,1009.76
2016-11-04T06:52:34.450Z,1009.67
2016-11-04T06:53:14.938Z,1009.83
2016-11-04T06:53:55.439Z,1009.69
2016-11-04T06:54:35.898Z,1010
2016-11-04T06:55:16.391Z,1009.74
2016-11-04T06:55:56.835Z,1009.9
2016-11-04T06:56:37.319Z,1010.02
2016-11-04T06:57:17.832Z,1009.7
2016-11-04T06:57:58.312Z,1009.73
2016-11-04T06:58:38.772Z,1009.7
2016-11-04T06:59:19.229Z,1009.67
2016-11-04T06:59:59.714Z,1009.72
2016-11-04T07:00:40.199Z,1009.79
2016-11-04T07:01:20.682Z,1009.89
2016-11-04T07:02:01.314Z,1009.86
2016-11-04T07:02:43.325Z,1009.75
2016-11-04T07:03:23.779Z,1009.76
2016-11-04T07:04:04.251Z,1009.76
2016-11-04T07:04:44.857Z,1009.73
2016-11-04T07:05:25.350Z,1009.67
2016-11-04T07:06:05.841Z,1009.64
2016-11-04T07:06:46.323Z,1009.61
2016-11-04T07:07:26.800Z,1009.76
2016-11-04T07:08:07.308Z,1009.75
2016-11-04T07:08:49.868Z,1009.65
2016-11-04T07:09:30.404Z,1009.64
2016-11-04T07:10:10.882Z,1009.58
2016-11-04T07:10:51.397Z,1009.6
2016-11-04T07:11:31.870Z,1009.66
2016-11-04T07:12:12.769Z,1009.65
2016-11-04T07:12:53.266Z,1009.54
2016-11-04T07:13:33.751Z,1009.75
2016-11-04T07:14:14.250Z,1009.58
2016-11-04T07:14:54.786Z,1009.66
2016-11-04T07:15:35.626Z,1009.59
2016-11-04T07:16:16.089Z,1009.61
2016-11-04T07:16:56.966Z,1009.69
2016-11-04T07:17:37.252Z,1009.65
2016-11-04T07:18:17.924Z,1009.59
2016-11-04T07:18:58.377Z,1009.57
2016-11-04T07:19:40.075Z,1009.55
2016-11-04T07:20:20.595Z,1009.58
2016-11-04T07:21:01.063Z,1009.55
2016-11-04T07:21:41.581Z,1009.57
2016-11-04T07:22:22.388Z,1009.58
2016-11-04T07:23:02.880Z,1009.56
2016-11-04T07:23:43.352Z,1009.53
2016-11-04T07:24:23.815Z,1009.57
2016-11-04T07:25:04.324Z,1009.43
2016-11-04T07:25:44.818Z,1009.43
2016-11-04T07:26:25.296Z,1009.46
2016-11-04T07:27:05.779Z,1009.47
2016-11-04T07:27:46.296Z,1009.43
2016-11-04T07:28:26.773Z,1009.64
2016-11-04T07:29:07.264Z,1009.45
2016-11-04T07:29:47.767Z,1009.43
2016-11-04T07:30:28.308Z,1009.52
2016-11-04T07:31:08.786Z,1009.57
2016-11-04T07:31:49.270Z,1009.41
2016-11-04T07:32:29.753Z,1009.41
2016-11-04T07:33:10.274Z,1009.4
2016-11-04T07:33:51.778Z,1009.47
2016-11-04T07:34:35.101Z,1009.43
2016-11-04T07:35:17.636Z,1009.5
2016-11-04T07:35:58.085Z,1009.38
2016-11-04T07:36:38.592Z,1009.51
2016-11-04T07:37:19.058Z,1009.43
2016-11-04T07:37:59.552Z,1009.39
2016-11-04T07:38:40.085Z,1009.34
2016-11-04T07:39:20.544Z,1009.33
2016-11-04T07:40:01.019Z,1009.33
2016-11-04T07:40:41.499Z,1009.32
2016-11-04T07:41:21.980Z,1009.36
2016-11-04T07:42:03.835Z,1009.35
2016-11-04T07:42:44.288Z,1009.41
2016-11-04T07:43:24.793Z,1009.45
2016-11-04T07:44:05.284Z,1009.34
2016-11-04T07:44:45.795Z,1009.39
2016-11-04T07:45:30.041Z,1009.33
2016-11-04T07:46:10.552Z,1009.32
2016-11-04T07:46:51.056Z,1009.35
2016-11-04T07:47:31.526Z,1009.29
2016-11-04T07:48:12.020Z,1009.33
2016-11-04T07:48:52.524Z,1009.33
2016-11-04T07:49:33.026Z,1009.3
2016-11-04T07:50:13.498Z,1009.27
2016-11-04T07:50:54.009Z,1009.26
2016-11-04T07:51:34.497Z,1009.24
2016-11-04T07:53:27.833Z,1009.26
2016-11-04T07:54:08.944Z,1009.24
2016-11-04T07:54:49.494Z,1009.4
2016-11-04T07:55:29.989Z,1009.18
2016-11-04T07:56:10.507Z,1009.26
2016-11-04T07:56:51.010Z,1009.26
2016-11-04T07:57:31.491Z,1009.33
2016-11-04T07:58:11.964Z,1009.25
2016-11-04T07:58:52.473Z,1009.28
2016-11-04T07:59:32.944Z,1009.21
2016-11-04T08:00:13.413Z,1009.25
2016-11-04T08:00:53.932Z,1009.37
2016-11-04T08:01:34.432Z,1009.43
2016-11-04T08:02:14.963Z,1009.35
2016-11-04T08:02:55.404Z,1009.27
2016-11-04T08:03:35.992Z,1009.23
2016-11-04T08:04:16.461Z,1009.22
2016-11-04T08:04:56.946Z,1009.27
2016-11-04T08:05:37.440Z,1009.23
2016-11-04T08:06:17.941Z,1009.24
2016-11-04T08:06:58.429Z,1009.16
2016-11-04T08:09:32.644Z,1009.16
2016-11-04T08:10:13.255Z,1009.16
2016-11-04T08:10:53.769Z,1009.16
2016-11-04T08:11:34.426Z,1009.14
2016-11-04T08:12:15.178Z,1009.27
2016-11-04T08:12:55.576Z,1009.21
2016-11-04T08:13:36.064Z,1009.22
2016-11-04T08:14:16.548Z,1009.3
2016-11-04T08:14:57.069Z,1009.27
2016-11-04T08:15:37.633Z,1009.22
2016-11-04T08:16:18.110Z,1009.3
2016-11-04T08:16:58.591Z,1009.35
2016-11-04T08:17:39.138Z,1009.32
2016-11-04T08:18:19.601Z,1009.19